KCAD/CAD METAR and TAF weather

Enter ICAO airport designator
Station Type Date Time Source
KCAD METAR 2021/09/23 18:15 UTC NOAA

KCAD 231815Z AUTO 33008KT 10SM OVC009 09/06 A2981 RMK AO2 T00860064


Station Type Date Time Source
KCAD Decoded METAR 2021/09/23 18:15 UTC NOAA

Cadillac / Wexford County, MI, United States (KCAD) 44-17N 085-25W
Sep 23, 2021 - 02:15 PM EDT / 2021.09.23 1815 UTC
Wind: from the NNW (330 degrees) at 9 MPH (8 KT):0
Visibility: 10 mile(s):0
Sky conditions: overcast
Temperature: 47.5 F (8.6 C)
Dew Point: 43.5 F (6.4 C)
Relative Humidity: 86%
Pressure (altimeter): 29.81 in. Hg (1009 hPa)
ob: KCAD 231815Z AUTO 33008KT 10SM OVC009 09/06 A2981 RMK AO2 T00860064
cycle: 18

Station Type Date Time Source
KCAD TAF UTC NOAA

Error!

Example: see airport list